sensor_id;sensor_type;location;lat;lon;timestamp;pressure;altitude;pressure_sealevel;temperature
68911;BMP180;55953;51.650;-0.522;2022-10-30T00:01:20;100523.20;;;15.50
68911;BMP180;55953;51.650;-0.522;2022-10-30T00:03:47;100529.00;;;15.50
68911;BMP180;55953;51.650;-0.522;2022-10-30T00:06:16;100526.00;;;15.40
68911;BMP180;55953;51.650;-0.522;2022-10-30T00:08:49;100531.60;;;15.48
68911;BMP180;55953;51.650;-0.522;2022-10-30T00:11:17;100530.60;;;15.50
68911;BMP180;55953;51.650;-0.522;2022-10-30T00:13:45;100533.60;;;15.54
68911;BMP180;55953;51.650;-0.522;2022-10-30T00:16:12;100542.80;;;15.50
68911;BMP180;55953;51.650;-0.522;2022-10-30T00:18:40;100545.20;;;15.40
68911;BMP180;55953;51.650;-0.522;2022-10-30T00:21:13;100537.80;;;15.40
68911;BMP180;55953;51.650;-0.522;2022-10-30T00:23:51;100544.20;;;15.38
68911;BMP180;55953;51.650;-0.522;2022-10-30T00:26:22;100539.40;;;15.28
68911;BMP180;55953;51.650;-0.522;2022-10-30T00:28:54;100541.40;;;15.20
68911;BMP180;55953;51.650;-0.522;2022-10-30T00:31:23;100546.60;;;15.20
68911;BMP180;55953;51.650;-0.522;2022-10-30T00:33:52;100546.40;;;15.20
68911;BMP180;55953;51.650;-0.522;2022-10-30T00:36:22;100547.60;;;15.20
68911;BMP180;55953;51.650;-0.522;2022-10-30T00:38:49;100539.20;;;15.20
68911;BMP180;55953;51.650;-0.522;2022-10-30T00:41:22;100548.60;;;15.20
68911;BMP180;55953;51.650;-0.522;2022-10-30T00:43:51;100549.00;;;15.16
68911;BMP180;55953;51.650;-0.522;2022-10-30T00:46:36;100548.80;;;15.10
68911;BMP180;55953;51.650;-0.522;2022-10-30T00:49:12;100538.80;;;15.10
68911;BMP180;55953;51.650;-0.522;2022-10-30T00:51:51;100538.00;;;15.10
68911;BMP180;55953;51.650;-0.522;2022-10-30T00:54:21;100521.80;;;15.16
68911;BMP180;55953;51.650;-0.522;2022-10-30T00:56:51;100516.00;;;15.20
68911;BMP180;55953;51.650;-0.522;2022-10-30T00:59:29;100512.00;;;15.20
68911;BMP180;55953;51.650;-0.522;2022-10-30T01:02:01;100504.40;;;15.10
68911;BMP180;55953;51.650;-0.522;2022-10-30T01:04:35;100509.20;;;15.10
68911;BMP180;55953;51.650;-0.522;2022-10-30T01:07:13;100514.80;;;15.16
68911;BMP180;55953;51.650;-0.522;2022-10-30T01:09:42;100505.40;;;15.10
68911;BMP180;55953;51.650;-0.522;2022-10-30T01:12:10;100497.00;;;15.00
68911;BMP180;55953;51.650;-0.522;2022-10-30T01:14:48;100494.60;;;14.92
68911;BMP180;55953;51.650;-0.522;2022-10-30T01:17:29;100499.60;;;15.00
68911;BMP180;55953;51.650;-0.522;2022-10-30T01:20:55;100496.80;;;14.90
68911;BMP180;55953;51.650;-0.522;2022-10-30T01:29:10;100485.00;;;14.90
68911;BMP180;55953;51.650;-0.522;2022-10-30T01:35:01;100498.60;;;14.80
68911;BMP180;55953;51.650;-0.522;2022-10-30T01:37:41;100502.40;;;14.70
68911;BMP180;55953;51.650;-0.522;2022-10-30T01:40:16;100504.20;;;14.60
68911;BMP180;55953;51.650;-0.522;2022-10-30T01:42:53;100493.80;;;14.64
68911;BMP180;55953;51.650;-0.522;2022-10-30T01:54:46;100497.40;;;14.50
68911;BMP180;55953;51.650;-0.522;2022-10-30T02:00:51;100488.60;;;14.50
68911;BMP180;55953;51.650;-0.522;2022-10-30T02:03:20;100492.60;;;14.56
68911;BMP180;55953;51.650;-0.522;2022-10-30T02:05:51;100490.20;;;14.50
68911;BMP180;55953;51.650;-0.522;2022-10-30T02:08:21;100496.20;;;14.40
68911;BMP180;55953;51.650;-0.522;2022-10-30T02:10:52;100497.20;;;14.40
68911;BMP180;55953;51.650;-0.522;2022-10-30T02:13:31;100496.20;;;14.40
68911;BMP180;55953;51.650;-0.522;2022-10-30T02:15:59;100494.80;;;14.36
68911;BMP180;55953;51.650;-0.522;2022-10-30T02:18:28;100490.20;;;14.30
68911;BMP180;55953;51.650;-0.522;2022-10-30T02:20:57;100478.60;;;14.30
68911;BMP180;55953;51.650;-0.522;2022-10-30T02:23:24;100476.80;;;14.20
68911;BMP180;55953;51.650;-0.522;2022-10-30T02:25:53;100479.80;;;14.20
68911;BMP180;55953;51.650;-0.522;2022-10-30T02:28:21;100479.40;;;14.20
68911;BMP180;55953;51.650;-0.522;2022-10-30T02:30:49;100480.60;;;14.20
68911;BMP180;55953;51.650;-0.522;2022-10-30T02:33:17;100480.40;;;14.30
68911;BMP180;55953;51.650;-0.522;2022-10-30T02:35:50;100472.80;;;14.30
68911;BMP180;55953;51.650;-0.522;2022-10-30T02:38:19;100473.00;;;14.30
68911;BMP180;55953;51.650;-0.522;2022-10-30T02:40:49;100477.80;;;14.30
68911;BMP180;55953;51.650;-0.522;2022-10-30T02:43:17;100476.40;;;14.30
68911;BMP180;55953;51.650;-0.522;2022-10-30T02:45:49;100477.60;;;14.30
68911;BMP180;55953;51.650;-0.522;2022-10-30T02:48:17;100470.60;;;14.30
68911;BMP180;55953;51.650;-0.522;2022-10-30T02:50:45;100469.00;;;14.22
68911;BMP180;55953;51.650;-0.522;2022-10-30T02:53:13;100465.20;;;14.22
68911;BMP180;55953;51.650;-0.522;2022-10-30T02:55:41;100464.60;;;14.20
68911;BMP180;55953;51.650;-0.522;2022-10-30T02:58:09;100463.40;;;14.20
68911;BMP180;55953;51.650;-0.522;2022-10-30T03:00:37;100456.20;;;14.10
68911;BMP180;55953;51.650;-0.522;2022-10-30T03:03:05;100456.00;;;14.10
68911;BMP180;55953;51.650;-0.522;2022-10-30T03:05:33;100466.60;;;14.00
68911;BMP180;55953;51.650;-0.522;2022-10-30T03:08:01;100477.00;;;14.00
68911;BMP180;55953;51.650;-0.522;2022-10-30T03:10:29;100471.40;;;13.90
68911;BMP180;55953;51.650;-0.522;2022-10-30T03:12:58;100468.20;;;13.90
68911;BMP180;55953;51.650;-0.522;2022-10-30T03:15:27;100467.00;;;13.80
68911;BMP180;55953;51.650;-0.522;2022-10-30T03:17:54;100468.00;;;13.76
68911;BMP180;55953;51.650;-0.522;2022-10-30T03:20:23;100468.00;;;13.70
68911;BMP180;55953;51.650;-0.522;2022-10-30T03:22:51;100467.20;;;13.70
68911;BMP180;55953;51.650;-0.522;2022-10-30T03:25:18;100462.60;;;13.70
68911;BMP180;55953;51.650;-0.522;2022-10-30T03:27:53;100462.60;;;13.60
68911;BMP180;55953;51.650;-0.522;2022-10-30T03:30:22;100456.40;;;13.60
68911;BMP180;55953;51.650;-0.522;2022-10-30T03:32:50;100471.60;;;13.60
68911;BMP180;55953;51.650;-0.522;2022-10-30T03:35:19;100472.80;;;13.50
68911;BMP180;55953;51.650;-0.522;2022-10-30T03:37:47;100477.60;;;13.60
68911;BMP180;55953;51.650;-0.522;2022-10-30T03:40:15;100477.40;;;13.60
68911;BMP180;55953;51.650;-0.522;2022-10-30T03:42:43;100480.20;;;13.50
68911;BMP180;55953;51.650;-0.522;2022-10-30T03:45:11;100486.60;;;13.50
68911;BMP180;55953;51.650;-0.522;2022-10-30T03:47:40;100486.00;;;13.60
68911;BMP180;55953;51.650;-0.522;2022-10-30T03:50:08;100485.20;;;13.60
68911;BMP180;55953;51.650;-0.522;2022-10-30T03:52:36;100491.40;;;13.50
68911;BMP180;55953;51.650;-0.522;2022-10-30T03:55:05;100486.00;;;13.60
68911;BMP180;55953;51.650;-0.522;2022-10-30T03:57:36;100487.20;;;13.60
68911;BMP180;55953;51.650;-0.522;2022-10-30T04:00:09;100488.00;;;13.70
68911;BMP180;55953;51.650;-0.522;2022-10-30T04:02:46;100489.20;;;13.70
68911;BMP180;55953;51.650;-0.522;2022-10-30T04:05:17;100485.20;;;13.70
68911;BMP180;55953;51.650;-0.522;2022-10-30T04:07:47;100481.20;;;13.74
68911;BMP180;55953;51.650;-0.522;2022-10-30T04:10:15;100485.20;;;13.80
68911;BMP180;55953;51.650;-0.522;2022-10-30T04:12:51;100486.60;;;13.80
68911;BMP180;55953;51.650;-0.522;2022-10-30T04:15:19;100482.20;;;13.90
68911;BMP180;55953;51.650;-0.522;2022-10-30T04:17:49;100481.00;;;13.90
68911;BMP180;55953;51.650;-0.522;2022-10-30T04:20:19;100473.60;;;13.80
68911;BMP180;55953;51.650;-0.522;2022-10-30T04:22:47;100462.40;;;13.80
68911;BMP180;55953;51.650;-0.522;2022-10-30T04:25:19;100456.60;;;13.70
68911;BMP180;55953;51.650;-0.522;2022-10-30T04:27:48;100452.60;;;13.70
68911;BMP180;55953;51.650;-0.522;2022-10-30T04:30:16;100456.20;;;13.70
68911;BMP180;55953;51.650;-0.522;2022-10-30T04:32:47;100456.40;;;13.70
68911;BMP180;55953;51.650;-0.522;2022-10-30T04:35:19;100455.60;;;13.70
68911;BMP180;55953;51.650;-0.522;2022-10-30T04:38:03;100462.60;;;13.70
68911;BMP180;55953;51.650;-0.522;2022-10-30T04:40:36;100453.80;;;13.60
68911;BMP180;55953;51.650;-0.522;2022-10-30T04:43:07;100453.60;;;13.60
68911;BMP180;55953;51.650;-0.522;2022-10-30T04:45:36;100456.00;;;13.66
68911;BMP180;55953;51.650;-0.522;2022-10-30T04:48:11;100452.00;;;13.70
68911;BMP180;55953;51.650;-0.522;2022-10-30T04:50:41;100447.00;;;13.70
68911;BMP180;55953;51.650;-0.522;2022-10-30T04:53:17;100439.60;;;13.70
68911;BMP180;55953;51.650;-0.522;2022-10-30T04:55:53;100436.80;;;13.80
68911;BMP180;55953;51.650;-0.522;2022-10-30T04:58:21;100438.80;;;13.80
68911;BMP180;55953;51.650;-0.522;2022-10-30T05:01:03;100434.60;;;13.80
68911;BMP180;55953;51.650;-0.522;2022-10-30T05:03:32;100439.40;;;13.80
68911;BMP180;55953;51.650;-0.522;2022-10-30T05:06:10;100443.40;;;13.80
68911;BMP180;55953;51.650;-0.522;2022-10-30T05:08:39;100442.40;;;13.80
68911;BMP180;55953;51.650;-0.522;2022-10-30T05:11:17;100429.20;;;13.80
68911;BMP180;55953;51.650;-0.522;2022-10-30T05:13:46;100425.20;;;13.90
68911;BMP180;55953;51.650;-0.522;2022-10-30T05:16:16;100424.80;;;13.84
68911;BMP180;55953;51.650;-0.522;2022-10-30T05:18:44;100419.80;;;13.80
68911;BMP180;55953;51.650;-0.522;2022-10-30T05:21:12;100423.00;;;13.80
68911;BMP180;55953;51.650;-0.522;2022-10-30T05:23:40;100429.20;;;13.80
68911;BMP180;55953;51.650;-0.522;2022-10-30T05:26:09;100434.40;;;13.80
68911;BMP180;55953;51.650;-0.522;2022-10-30T05:28:37;100439.40;;;13.80
68911;BMP180;55953;51.650;-0.522;2022-10-30T05:31:05;100442.20;;;13.80
68911;BMP180;55953;51.650;-0.522;2022-10-30T05:33:52;100442.40;;;13.80
68911;BMP180;55953;51.650;-0.522;2022-10-30T05:36:20;100443.20;;;13.80
68911;BMP180;55953;51.650;-0.522;2022-10-30T05:38:48;100442.60;;;13.80
68911;BMP180;55953;51.650;-0.522;2022-10-30T05:41:30;100448.60;;;13.80
68911;BMP180;55953;51.650;-0.522;2022-10-30T05:43:57;100443.20;;;13.80
68911;BMP180;55953;51.650;-0.522;2022-10-30T05:46:25;100452.00;;;13.80
68911;BMP180;55953;51.650;-0.522;2022-10-30T05:48:54;100449.00;;;13.70
68911;BMP180;55953;51.650;-0.522;2022-10-30T05:51:22;100451.80;;;13.70
68911;BMP180;55953;51.650;-0.522;2022-10-30T05:53:53;100450.40;;;13.72
68911;BMP180;55953;51.650;-0.522;2022-10-30T05:56:24;100455.00;;;13.80
68911;BMP180;55953;51.650;-0.522;2022-10-30T05:58:52;100454.80;;;13.90
68911;BMP180;55953;51.650;-0.522;2022-10-30T06:01:19;100456.00;;;13.90
68911;BMP180;55953;51.650;-0.522;2022-10-30T06:03:48;100453.80;;;14.00
68911;BMP180;55953;51.650;-0.522;2022-10-30T06:06:16;100455.00;;;14.00
68911;BMP180;55953;51.650;-0.522;2022-10-30T06:08:44;100456.80;;;14.02
68911;BMP180;55953;51.650;-0.522;2022-10-30T06:11:31;100456.40;;;14.00
68911;BMP180;55953;51.650;-0.522;2022-10-30T06:14:00;100463.00;;;14.10
68911;BMP180;55953;51.650;-0.522;2022-10-30T06:16:46;100462.00;;;14.08
68911;BMP180;55953;51.650;-0.522;2022-10-30T06:19:32;100464.40;;;14.10
68911;BMP180;55953;51.650;-0.522;2022-10-30T06:22:20;100467.60;;;14.10
68911;BMP180;55953;51.650;-0.522;2022-10-30T06:24:54;100472.40;;;14.10
68911;BMP180;55953;51.650;-0.522;2022-10-30T06:27:48;100472.80;;;14.20
68911;BMP180;55953;51.650;-0.522;2022-10-30T06:30:17;100469.40;;;14.20
68911;BMP180;55953;51.650;-0.522;2022-10-30T06:32:45;100471.60;;;14.20
68911;BMP180;55953;51.650;-0.522;2022-10-30T06:35:13;100468.00;;;14.20
68911;BMP180;55953;51.650;-0.522;2022-10-30T06:37:49;100466.60;;;14.30
68911;BMP180;55953;51.650;-0.522;2022-10-30T06:40:17;100467.80;;;14.30
68911;BMP180;55953;51.650;-0.522;2022-10-30T06:43:10;100461.00;;;14.30
68911;BMP180;55953;51.650;-0.522;2022-10-30T06:45:45;100457.20;;;14.30
68911;BMP180;55953;51.650;-0.522;2022-10-30T06:48:13;100452.00;;;14.30
68911;BMP180;55953;51.650;-0.522;2022-10-30T06:50:45;100449.80;;;14.40
68911;BMP180;55953;51.650;-0.522;2022-10-30T06:53:13;100455.80;;;14.40
68911;BMP180;55953;51.650;-0.522;2022-10-30T06:55:41;100452.00;;;14.40
68911;BMP180;55953;51.650;-0.522;2022-10-30T06:58:23;100452.80;;;14.40
68911;BMP180;55953;51.650;-0.522;2022-10-30T07:01:07;100455.60;;;14.40
68911;BMP180;55953;51.650;-0.522;2022-10-30T07:04:04;100462.40;;;14.50
68911;BMP180;55953;51.650;-0.522;2022-10-30T07:06:32;100467.60;;;14.50
68911;BMP180;55953;51.650;-0.522;2022-10-30T07:08:59;100471.60;;;14.44
68911;BMP180;55953;51.650;-0.522;2022-10-30T07:11:27;100477.20;;;14.40
68911;BMP180;55953;51.650;-0.522;2022-10-30T07:14:14;100479.60;;;14.40
68911;BMP180;55953;51.650;-0.522;2022-10-30T07:17:02;100479.80;;;14.46
68911;BMP180;55953;51.650;-0.522;2022-10-30T07:19:30;100484.60;;;14.48
68911;BMP180;55953;51.650;-0.522;2022-10-30T07:22:00;100486.80;;;14.44
68911;BMP180;55953;51.650;-0.522;2022-10-30T07:24:29;100494.00;;;14.50
68911;BMP180;55953;51.650;-0.522;2022-10-30T07:27:26;100492.00;;;14.50
68911;BMP180;55953;51.650;-0.522;2022-10-30T07:30:05;100484.00;;;14.52
68911;BMP180;55953;51.650;-0.522;2022-10-30T07:32:43;100477.60;;;14.60
68911;BMP180;55953;51.650;-0.522;2022-10-30T07:35:25;100480.00;;;14.70
68911;BMP180;55953;51.650;-0.522;2022-10-30T07:38:18;100478.80;;;14.70
68911;BMP180;55953;51.650;-0.522;2022-10-30T07:40:55;100467.20;;;14.70
68911;BMP180;55953;51.650;-0.522;2022-10-30T07:43:44;100466.00;;;14.74
68911;BMP180;55953;51.650;-0.522;2022-10-30T07:46:41;100456.00;;;14.78
68911;BMP180;55953;51.650;-0.522;2022-10-30T07:49:41;100452.60;;;14.78
68911;BMP180;55953;51.650;-0.522;2022-10-30T07:52:08;100449.40;;;14.80
68911;BMP180;55953;51.650;-0.522;2022-10-30T07:54:44;100445.20;;;14.90
68911;BMP180;55953;51.650;-0.522;2022-10-30T07:57:44;100446.20;;;14.90
68911;BMP180;55953;51.650;-0.522;2022-10-30T08:00:31;100447.60;;;14.90
68911;BMP180;55953;51.650;-0.522;2022-10-30T08:03:10;100461.20;;;14.92
68911;BMP180;55953;51.650;-0.522;2022-10-30T08:06:05;100456.00;;;14.98
68911;BMP180;55953;51.650;-0.522;2022-10-30T08:08:37;100456.80;;;15.00
68911;BMP180;55953;51.650;-0.522;2022-10-30T08:11:31;100458.80;;;15.10
68911;BMP180;55953;51.650;-0.522;2022-10-30T08:13:59;100459.00;;;15.10
68911;BMP180;55953;51.650;-0.522;2022-10-30T08:16:27;100453.80;;;15.10
68911;BMP180;55953;51.650;-0.522;2022-10-30T08:18:54;100459.60;;;15.20
68911;BMP180;55953;51.650;-0.522;2022-10-30T08:21:25;100455.80;;;15.30
68911;BMP180;55953;51.650;-0.522;2022-10-30T08:24:00;100458.00;;;15.30
68911;BMP180;55953;51.650;-0.522;2022-10-30T08:26:30;100457.00;;;15.30
68911;BMP180;55953;51.650;-0.522;2022-10-30T08:28:58;100457.20;;;15.30
68911;BMP180;55953;51.650;-0.522;2022-10-30T08:31:27;100463.40;;;15.30
68911;BMP180;55953;51.650;-0.522;2022-10-30T08:34:01;100465.00;;;15.30
68911;BMP180;55953;51.650;-0.522;2022-10-30T08:36:34;100474.20;;;15.24
68911;BMP180;55953;51.650;-0.522;2022-10-30T08:39:02;100461.00;;;15.26
68911;BMP180;55953;51.650;-0.522;2022-10-30T08:41:57;100463.40;;;15.30
68911;BMP180;55953;51.650;-0.522;2022-10-30T08:44:29;100459.60;;;15.30
68911;BMP180;55953;51.650;-0.522;2022-10-30T08:47:17;100466.40;;;15.30
68911;BMP180;55953;51.650;-0.522;2022-10-30T08:49:45;100474.20;;;15.30
68911;BMP180;55953;51.650;-0.522;2022-10-30T08:52:15;100472.80;;;15.30
68911;BMP180;55953;51.650;-0.522;2022-10-30T08:54:44;100468.60;;;15.30
68911;BMP180;55953;51.650;-0.522;2022-10-30T08:57:12;100437.40;;;15.30
68911;BMP180;55953;51.650;-0.522;2022-10-30T08:59:40;100440.20;;;15.30
68911;BMP180;55953;51.650;-0.522;2022-10-30T09:02:12;100466.00;;;15.20
68911;BMP180;55953;51.650;-0.522;2022-10-30T09:05:08;100467.80;;;15.20
68911;BMP180;55953;51.650;-0.522;2022-10-30T09:07:59;100481.80;;;15.20
68911;BMP180;55953;51.650;-0.522;2022-10-30T09:10:54;100487.00;;;15.20
68911;BMP180;55953;51.650;-0.522;2022-10-30T09:13:24;100485.40;;;15.20
68911;BMP180;55953;51.650;-0.522;2022-10-30T09:15:52;100471.60;;;15.20
68911;BMP180;55953;51.650;-0.522;2022-10-30T09:18:20;100440.20;;;15.20
68911;BMP180;55953;51.650;-0.522;2022-10-30T09:20:50;100439.20;;;15.30
68911;BMP180;55953;51.650;-0.522;2022-10-30T09:23:18;100454.00;;;15.36
68911;BMP180;55953;51.650;-0.522;2022-10-30T09:25:48;100443.80;;;15.40
68911;BMP180;55953;51.650;-0.522;2022-10-30T09:28:25;100471.40;;;15.40
68911;BMP180;55953;51.650;-0.522;2022-10-30T09:31:11;100468.60;;;15.40
68911;BMP180;55953;51.650;-0.522;2022-10-30T09:33:39;100493.80;;;15.40
68911;BMP180;55953;51.650;-0.522;2022-10-30T09:36:33;100488.80;;;15.50
68911;BMP180;55953;51.650;-0.522;2022-10-30T09:39:03;100491.60;;;15.52
68911;BMP180;55953;51.650;-0.522;2022-10-30T09:55:03;100476.60;;;15.80
68911;BMP180;55953;51.650;-0.522;2022-10-30T10:00:52;100473.60;;;15.70
68911;BMP180;55953;51.650;-0.522;2022-10-30T10:07:06;100466.40;;;15.74
68911;BMP180;55953;51.650;-0.522;2022-10-30T10:09:48;100473.80;;;15.80
68911;BMP180;55953;51.650;-0.522;2022-10-30T10:12:47;100470.60;;;15.90
68911;BMP180;55953;51.650;-0.522;2022-10-30T10:18:25;100473.80;;;16.18
68911;BMP180;55953;51.650;-0.522;2022-10-30T10:21:02;100466.60;;;16.26
68911;BMP180;55953;51.650;-0.522;2022-10-30T10:23:45;100470.40;;;16.30
68911;BMP180;55953;51.650;-0.522;2022-10-30T10:38:55;100466.20;;;16.40
68911;BMP180;55953;51.650;-0.522;2022-10-30T10:42:05;100473.60;;;16.40
68911;BMP180;55953;51.650;-0.522;2022-10-30T10:48:16;100474.40;;;16.40
68911;BMP180;55953;51.650;-0.522;2022-10-30T10:50:57;100477.80;;;16.30
68911;BMP180;55953;51.650;-0.522;2022-10-30T10:53:42;100482.40;;;16.30
68911;BMP180;55953;51.650;-0.522;2022-10-30T10:56:12;100482.00;;;16.30
68911;BMP180;55953;51.650;-0.522;2022-10-30T11:01:59;100483.60;;;16.20
68911;BMP180;55953;51.650;-0.522;2022-10-30T11:04:39;100487.80;;;16.20
68911;BMP180;55953;51.650;-0.522;2022-10-30T11:07:33;100479.00;;;16.28
68911;BMP180;55953;51.650;-0.522;2022-10-30T11:10:12;100475.60;;;16.30
68911;BMP180;55953;51.650;-0.522;2022-10-30T11:12:41;100472.60;;;16.40
68911;BMP180;55953;51.650;-0.522;2022-10-30T11:16:14;100477.40;;;16.46
68911;BMP180;55953;51.650;-0.522;2022-10-30T11:18:47;100480.20;;;16.60
68911;BMP180;55953;51.650;-0.522;2022-10-30T11:21:22;100476.60;;;16.70
68911;BMP180;55953;51.650;-0.522;2022-10-30T11:23:51;100475.40;;;16.70
68911;BMP180;55953;51.650;-0.522;2022-10-30T11:28:55;100474.60;;;16.76
68911;BMP180;55953;51.650;-0.522;2022-10-30T11:31:29;100471.20;;;16.80
68911;BMP180;55953;51.650;-0.522;2022-10-30T11:36:49;100468.60;;;16.86
68911;BMP180;55953;51.650;-0.522;2022-10-30T11:39:23;100475.80;;;16.80
68911;BMP180;55953;51.650;-0.522;2022-10-30T11:42:17;100470.80;;;16.80
68911;BMP180;55953;51.650;-0.522;2022-10-30T11:44:49;100477.60;;;16.84
68911;BMP180;55953;51.650;-0.522;2022-10-30T11:47:27;100466.80;;;16.90
68911;BMP180;55953;51.650;-0.522;2022-10-30T11:50:03;100464.60;;;17.00
68911;BMP180;55953;51.650;-0.522;2022-10-30T11:52:39;100464.40;;;16.94
68911;BMP180;55953;51.650;-0.522;2022-10-30T11:55:20;100464.00;;;17.00
68911;BMP180;55953;51.650;-0.522;2022-10-30T11:57:53;100459.00;;;17.00
68911;BMP180;55953;51.650;-0.522;2022-10-30T12:00:29;100464.00;;;17.00
68911;BMP180;55953;51.650;-0.522;2022-10-30T12:02:59;100468.00;;;17.00
68911;BMP180;55953;51.650;-0.522;2022-10-30T12:05:40;100461.20;;;17.06
68911;BMP180;55953;51.650;-0.522;2022-10-30T12:10:53;100453.00;;;17.28
68911;BMP180;55953;51.650;-0.522;2022-10-30T12:13:23;100456.20;;;17.20
68911;BMP180;55953;51.650;-0.522;2022-10-30T12:16:14;100453.60;;;17.20
68911;BMP180;55953;51.650;-0.522;2022-10-30T12:19:07;100458.20;;;17.20
68911;BMP180;55953;51.650;-0.522;2022-10-30T12:21:48;100450.40;;;17.20
68911;BMP180;55953;51.650;-0.522;2022-10-30T12:26:57;100452.00;;;17.00
68911;BMP180;55953;51.650;-0.522;2022-10-30T12:29:43;100456.20;;;17.06
68911;BMP180;55953;51.650;-0.522;2022-10-30T12:32:48;100461.00;;;17.00
68911;BMP180;55953;51.650;-0.522;2022-10-30T12:35:33;100455.60;;;17.00
68911;BMP180;55953;51.650;-0.522;2022-10-30T12:38:12;100451.20;;;16.90
68911;BMP180;55953;51.650;-0.522;2022-10-30T12:41:15;100451.80;;;17.00
68911;BMP180;55953;51.650;-0.522;2022-10-30T12:43:50;100454.60;;;16.94
68911;BMP180;55953;51.650;-0.522;2022-10-30T12:46:29;100443.00;;;16.90
68911;BMP180;55953;51.650;-0.522;2022-10-30T12:55:43;100431.80;;;16.80
68911;BMP180;55953;51.650;-0.522;2022-10-30T12:58:39;100435.20;;;16.80
68911;BMP180;55953;51.650;-0.522;2022-10-30T13:01:37;100429.40;;;16.80
68911;BMP180;55953;51.650;-0.522;2022-10-30T13:04:18;100427.40;;;16.80
68911;BMP180;55953;51.650;-0.522;2022-10-30T13:07:03;100434.00;;;16.80
68911;BMP180;55953;51.650;-0.522;2022-10-30T13:09:43;100434.60;;;16.78
68911;BMP180;55953;51.650;-0.522;2022-10-30T13:12:20;100438.00;;;16.80
68911;BMP180;55953;51.650;-0.522;2022-10-30T13:14:55;100448.40;;;16.70
68911;BMP180;55953;51.650;-0.522;2022-10-30T13:17:24;100441.20;;;16.70
68911;BMP180;55953;51.650;-0.522;2022-10-30T13:19:53;100438.00;;;16.80
68911;BMP180;55953;51.650;-0.522;2022-10-30T13:31:02;100445.40;;;17.30
68911;BMP180;55953;51.650;-0.522;2022-10-30T13:33:43;100438.20;;;17.60
68911;BMP180;55953;51.650;-0.522;2022-10-30T13:36:20;100435.00;;;17.70
68911;BMP180;55953;51.650;-0.522;2022-10-30T13:39:21;100433.80;;;17.80
68911;BMP180;55953;51.650;-0.522;2022-10-30T13:53:43;100421.60;;;17.60
68911;BMP180;55953;51.650;-0.522;2022-10-30T13:56:16;100425.20;;;17.50
68911;BMP180;55953;51.650;-0.522;2022-10-30T13:59:03;100422.40;;;17.50
68911;BMP180;55953;51.650;-0.522;2022-10-30T14:01:58;100412.40;;;17.60
68911;BMP180;55953;51.650;-0.522;2022-10-30T14:07:37;100409.60;;;17.60
68911;BMP180;55953;51.650;-0.522;2022-10-30T14:10:41;100407.60;;;17.60
68911;BMP180;55953;51.650;-0.522;2022-10-30T14:13:26;100411.00;;;17.60
68911;BMP180;55953;51.650;-0.522;2022-10-30T14:16:05;100420.20;;;17.56
68911;BMP180;55953;51.650;-0.522;2022-10-30T14:18:59;100427.20;;;17.50
68911;BMP180;55953;51.650;-0.522;2022-10-30T14:24:31;100441.40;;;17.60
68911;BMP180;55953;51.650;-0.522;2022-10-30T14:29:40;100436.80;;;17.80
68911;BMP180;55953;51.650;-0.522;2022-10-30T14:37:13;100450.40;;;17.80
68911;BMP180;55953;51.650;-0.522;2022-10-30T14:39:44;100448.60;;;17.60
68911;BMP180;55953;51.650;-0.522;2022-10-30T14:42:31;100460.20;;;17.44
68911;BMP180;55953;51.650;-0.522;2022-10-30T14:45:16;100455.60;;;17.30
68911;BMP180;55953;51.650;-0.522;2022-10-30T14:50:59;100477.40;;;17.00
68911;BMP180;55953;51.650;-0.522;2022-10-30T14:54:09;100479.60;;;17.04
68911;BMP180;55953;51.650;-0.522;2022-10-30T14:56:48;100480.60;;;17.10
68911;BMP180;55953;51.650;-0.522;2022-10-30T15:07:31;100487.20;;;17.10
68911;BMP180;55953;51.650;-0.522;2022-10-30T15:10:33;100492.00;;;17.00
68911;BMP180;55953;51.650;-0.522;2022-10-30T15:13:17;100491.80;;;16.82
68911;BMP180;55953;51.650;-0.522;2022-10-30T15:16:07;100492.00;;;16.70
68911;BMP180;55953;51.650;-0.522;2022-10-30T15:18:38;100491.80;;;16.70
68911;BMP180;55953;51.650;-0.522;2022-10-30T15:21:06;100498.40;;;16.66
68911;BMP180;55953;51.650;-0.522;2022-10-30T15:23:36;100494.00;;;16.60
68911;BMP180;55953;51.650;-0.522;2022-10-30T15:26:22;100499.60;;;16.60
68911;BMP180;55953;51.650;-0.522;2022-10-30T15:28:53;100499.60;;;16.60
68911;BMP180;55953;51.650;-0.522;2022-10-30T15:31:24;100502.20;;;16.54
68911;BMP180;55953;51.650;-0.522;2022-10-30T15:33:53;100501.00;;;16.50
68911;BMP180;55953;51.650;-0.522;2022-10-30T15:36:32;100505.40;;;16.50
68911;BMP180;55953;51.650;-0.522;2022-10-30T15:41:43;100509.20;;;16.40
68911;BMP180;55953;51.650;-0.522;2022-10-30T15:44:17;100518.00;;;16.40
68911;BMP180;55953;51.650;-0.522;2022-10-30T15:46:49;100522.20;;;16.30
68911;BMP180;55953;51.650;-0.522;2022-10-30T15:49:31;100522.40;;;16.30
68911;BMP180;55953;51.650;-0.522;2022-10-30T15:52:04;100523.40;;;16.20
68911;BMP180;55953;51.650;-0.522;2022-10-30T15:54:32;100523.60;;;16.20
68911;BMP180;55953;51.650;-0.522;2022-10-30T15:57:00;100526.60;;;16.10
68911;BMP180;55953;51.650;-0.522;2022-10-30T15:59:54;100532.60;;;16.10
68911;BMP180;55953;51.650;-0.522;2022-10-30T16:02:24;100536.20;;;16.06
68911;BMP180;55953;51.650;-0.522;2022-10-30T16:04:53;100528.40;;;16.00
68911;BMP180;55953;51.650;-0.522;2022-10-30T16:07:25;100533.00;;;15.92
68911;BMP180;55953;51.650;-0.522;2022-10-30T16:09:59;100536.20;;;15.90
68911;BMP180;55953;51.650;-0.522;2022-10-30T16:12:34;100536.40;;;15.80
68911;BMP180;55953;51.650;-0.522;2022-10-30T16:15:16;100535.20;;;15.80
68911;BMP180;55953;51.650;-0.522;2022-10-30T16:17:47;100537.40;;;15.70
68911;BMP180;55953;51.650;-0.522;2022-10-30T16:20:21;100538.00;;;15.60
68911;BMP180;55953;51.650;-0.522;2022-10-30T16:22:49;100546.40;;;15.60
68911;BMP180;55953;51.650;-0.522;2022-10-30T16:25:19;100548.80;;;15.50
68911;BMP180;55953;51.650;-0.522;2022-10-30T16:27:48;100549.20;;;15.50
68911;BMP180;55953;51.650;-0.522;2022-10-30T16:30:16;100556.40;;;15.40
68911;BMP180;55953;51.650;-0.522;2022-10-30T16:32:49;100554.60;;;15.40
68911;BMP180;55953;51.650;-0.522;2022-10-30T16:35:22;100554.20;;;15.30
68911;BMP180;55953;51.650;-0.522;2022-10-30T16:37:51;100558.40;;;15.20
68911;BMP180;55953;51.650;-0.522;2022-10-30T16:40:26;100562.80;;;15.20